Nicholas White

Recruteur en chef - Wigan Athletic
13 Févr 2028
Dimanche
Processus

Personnalité

Adaptabilité (3) Ambition (14) Controverse (5) Loyauté (1) Pression (4) Professionnalisme (7) Sportivité (1) Tempérament (3)

Profil

Style d'entraînement Démocratique
Diplôme National B
Détermination 5
Gestion des joueurs 3
Motivation 7
Discipline 3
Satisfaction professionnelle
100%
Fatigue
0%
Rôle Recruteur en chef
Salaire 47.5K p/s
Contrat 14.03.2029

Performance

Comportement Bon
Efficacité de l'entraînement
33%
Développement des joueurs
25%
Prévention des blessures
45%
Mise en place tactique
35%

Événements récents

A participé à une réunion de recrutement maintenant
A participé à une réunion de recrutement maintenant
A recommandé une cible de transfert maintenant
A recommandé une cible de transfert maintenant
A recommandé une cible de transfert maintenant
A recommandé une cible de transfert maintenant
A recommandé une cible de transfert maintenant
A recommandé une cible de transfert maintenant

Suivi en cours

107
Joueur Club Statut Capacité Confiance Observé Dernière observation Dernier vote
Nathan Asiimwe Charlton Athletic Actif 96 / 97 65% 1 24.01.2028 Approuver
Jake Evans Crewe Alexandra Négociation 99 / 111 73% 1 01.01.2028 Approuver
Ilja Zhbanov Cobresal Négociation 90 / 94 66% 1 01.01.2028 Approuver
Sam Vokes Gillingham Actif 89 / 84 62% 1 28.06.2027 Approuver
Tamas Kleinheisler St. Pauli Négociation 114 / 121 66% 1 01.06.2027 Approuver
Samuel Asamoah Racing Perdu 104 / 110 66% 1 01.06.2027 Approuver
Jay Rodriguez Wrexham Actif 110 / 101 62% 1 01.06.2027 Approuver
Edoardo Bove Watford Actif 140 / 130 40% 2 30.05.2027 -
Jonathan Varane Queens Park Rangers Actif 124 / 125 40% 1 30.05.2027 -
Koki Saito Queens Park Rangers Actif 123 / 130 40% 3 29.05.2027 -
Lee Buchanan Sheffield Wednesday Actif 125 / 130 40% 1 29.05.2027 -
Oswin Appollis Orlando Pirates Actif 123 / 108 40% 3 28.05.2027 -
Dennis Cirkin Queens Park Rangers Actif 130 / 138 40% 4 28.05.2027 -
Giorgi Chakvetadze Watford Actif 132 / 124 40% 2 27.05.2027 -
Thulani Mabaso Platinum Stars Actif 111 / 115 40% 1 26.05.2027 -
Aaron Morley Wycombe Wanderers Actif 123 / 119 40% 1 26.05.2027 -
Nicolas Madsen Queens Park Rangers Actif 123 / 132 40% 2 23.05.2027 -
Liam Thompson Mansfield Town Actif 115 / 119 40% 1 23.05.2027 -
Caylan Vickers Burton Albion Actif 106 / 122 40% 1 19.05.2027 -
Jacques Ekomié Wrexham Actif 135 / 131 40% 1 15.05.2027 -
Sam Mather Walsall Actif 105 / 106 40% 2 13.05.2027 -
Brodie Spencer Oxford United Actif 124 / 122 40% 1 13.05.2027 -
Darlin Yongwa Norwich City Actif 131 / 122 40% 3 12.05.2027 -
Bradley Zwane SuperSport United Actif 115 / 129 40% 5 10.05.2027 -
Harry Clarke Preston Actif 118 / 128 40% 2 09.05.2027 -
Sonny Carey Charlton Athletic Actif 118 / 110 40% 1 09.05.2027 -
John McAtee Leyton Orient Actif 101 / 103 40% 2 08.05.2027 -
Cian Ashford Cardiff City Actif 120 / 113 40% 4 05.05.2027 -
Myles Peart-Harris Oxford United Actif 111 / 129 40% 2 05.05.2027 -
Kwadwo Baah Watford Actif 122 / 134 40% 1 03.05.2027 -
Scott Twine Bristol City Actif 126 / 127 40% 4 02.05.2027 -
George Earthy Reading Actif 108 / 114 40% 1 02.05.2027 -
Isaac Inusah Wa All Stars Actif 104 / 106 40% 1 01.05.2027 -
Darragh Burns Grimsby Town Actif 98 / 92 40% 2 29.04.2027 -
Sam Greenwood Bristol City Actif 134 / 121 40% 2 27.04.2027 -
Andrea Colpani Monza Actif 139 / 139 40% 1 27.04.2027 -
Alfie Devine Preston Actif 108 / 118 40% 1 26.04.2027 -
Bongani Zungu Ajax Cape Town Actif 114 / 136 40% 2 25.04.2027 -
Othmane Maamma Watford Actif 124 / 125 40% 4 24.04.2027 -
Camillo Tavernelli Arezzo Actif 120 / 112 40% 1 22.04.2027 -
Kristoffer Lund Birmingham Actif 135 / 130 40% 1 21.04.2027 -
Bosun Lawal Stoke City Actif 118 / 135 40% 3 20.04.2027 -
Daniel Kyerewaa Reading Actif 121 / 116 40% 2 19.04.2027 -
Simon Ramabu Polokwane City Actif 96 / 113 40% 1 19.04.2027 -
Isaiah Jones Luton Town Actif 117 / 128 40% 2 17.04.2027 -
Toby Collyer West Bromwich Albion Actif 133 / 124 40% 1 17.04.2027 -
Jack Currie Oxford United Actif 132 / 121 40% 1 16.04.2027 -
Jack Moylan Lincoln City Actif 113 / 100 40% 1 15.04.2027 -
Rocco Vata Watford Actif 120 / 132 40% 1 13.04.2027 -
David Turnbull Cardiff City Actif 127 / 115 40% 1 12.04.2027 -
Tony Springett Cheltenham Town Actif 97 / 105 40% 2 10.04.2027 -
Max Bird Birmingham Actif 144 / 140 40% 3 09.04.2027 -
Tyler Goodrham Oxford United Actif 124 / 120 40% 1 07.04.2027 -
Mohammed Essien Hasaacas Actif 105 / 94 40% 2 06.04.2027 -
Malik Mothersille Stockport County Actif 112 / 112 40% 3 04.04.2027 -
Romano Floriani Mussolini Blackpool Actif 124 / 120 40% 2 31.03.2027 -
Ronaldo Maarman University of Pretoria Actif 93 / 98 40% 1 17.03.2027 -
Marcelo Allende Mamelodi Sundowns Actif 142 / 137 40% 2 13.03.2027 -
Gomolemo Kekana Maritzburg United Actif 93 / 120 40% 1 13.03.2027 -
Jack Diamond Stockport County Actif 117 / 119 40% 1 12.03.2027 -
Hamdi Akujobi JS Kabylie Actif 106 / 108 40% 2 11.03.2027 -
Derensili Sanches Fernandes Huddersfield Town Actif 125 / 120 40% 2 11.03.2027 -
Adam Randell Bristol City Actif 132 / 119 40% 2 09.03.2027 -
Goodman Mosele Chippa United Actif 97 / 96 40% 1 06.03.2027 -
Joe Gelhardt Hull City Actif 138 / 132 40% 1 04.03.2027 -
Harvey Vale Queens Park Rangers Actif 128 / 123 40% 1 04.01.2027 -
Sampson Dweh Mallorca Actif 133 / 134 66% 1 01.01.2027 Approuver
Malick Mbaye Zulte Waregem Négociation 111 / 116 66% 1 01.01.2027 Approuver
Asanele Velebayi Kaizer Chiefs Actif 114 / 108 40% 1 29.12.2026 -
Peter Valjent FK Senica Actif 112 / 105 40% 1 22.12.2026 Plus d'infos
Themba Dala Black Aces Actif 120 / 109 40% 1 20.12.2026 -
Milan van Ewijk Coventry City Refusé 130 / 128 40% 1 20.12.2026 Plus d'infos
Jesus Ferreira Seattle Sounders Actif 132 / 133 40% 2 15.12.2026 -
Armstrong Oko-Flex Levski Actif 133 / 103 40% 3 14.12.2026 -
Yanela Mbuthuma Orlando Pirates Actif 121 / 106 40% 1 14.12.2026 -
Aune Heggebø West Bromwich Albion Actif 134 / 117 40% 2 11.12.2026 -
Ammar Ramadan DAC Dunajska Streda Actif 134 / 122 40% 1 11.12.2026 -
Themba Williams Ajax Cape Town Actif 109 / 107 40% 1 11.12.2026 -
Nathan Ordaz DC United Actif 111 / 107 40% 1 05.12.2026 -
Yousef Salech Cardiff City Actif 136 / 126 40% 2 04.12.2026 -
Dejan Joveljić Seattle Sounders Actif 135 / 133 40% 1 04.12.2026 -
Josh Sargent Toronto FC Actif 139 / 133 40% 2 01.12.2026 -
Sunday Megwo Abia Warriors Actif 85 / 104 40% 1 27.11.2026 -
Facundo Mura Inter Miami CF Actif 118 / 117 40% 1 27.11.2026 -
Kévin Denkey FC Cincinnati Actif 130 / 127 40% 2 24.11.2026 -
Dwight McNeil Crystal Palace Actif 139 / 147 40% 1 23.11.2026 -
Isaac Matondo Koper Actif 110 / 114 40% 1 22.11.2026 -
Erick Dolly Black Aces Actif 102 / 130 40% 2 21.11.2026 -
Paschal Durugbor El Dakhleya Actif 91 / 93 40% 1 21.11.2026 -
Etiosa Ighodaro Kaizer Chiefs Actif 115 / 112 40% 2 20.11.2026 -
Juan Bezerra Zamalek Actif 119 / 124 40% 1 19.11.2026 -
David Da Costa Portland Timbers Actif 142 / 128 40% 1 17.11.2026 -
Tadeo Allende Inter Miami CF Actif 113 / 120 40% 1 15.11.2026 -
Alexander Aravena Portland Timbers Actif 112 / 129 40% 1 13.11.2026 -
Kelvin Yeboah Minnesota United FC Actif 112 / 119 40% 2 12.11.2026 -
Rhian Brewster Oleksandriya Actif 107 / 109 40% 1 12.11.2026 -
Petar Stanić Ludogorets Actif 140 / 150 40% 1 12.11.2026 -
Mateusz Bogusz Houston Dynamo Actif 119 / 136 40% 1 10.11.2026 -
Brooklyn Poggenpoel Maritzburg United Actif 120 / 115 40% 1 09.11.2026 -
Telasco Segovia Inter Miami CF Actif 135 / 134 40% 1 09.11.2026 -
Agustín Anello Philadelphia Union Actif 127 / 130 40% 1 07.11.2026 -
Tyrese Campbell Sheffield United Actif 132 / 117 40% 1 07.11.2026 -
Lebogang Manyama SuperSport United Actif 102 / 111 40% 1 06.11.2026 -
Pablo Ruiz Real Salt Lake Actif 130 / 125 40% 1 06.11.2026 -
Evidence Makgopa Orlando Pirates Actif 125 / 98 40% 1 03.11.2026 -
Cheikh Sabaly Vancouver Whitecaps Actif 129 / 134 40% 1 03.11.2026 -
Martín Ojeda Orlando City Actif 151 / 140 40% 1 02.11.2026 -